sensor_id;sensor_type;location;lat;lon;timestamp;P1;P2;P0
80643;PMS5003;70010;60.224;24.712;2023-11-18T00:02:12;67;46;
80643;PMS5003;70010;60.224;24.712;2023-11-18T00:04:37;69;53;
80643;PMS5003;70010;60.224;24.712;2023-11-18T00:07:03;67;56;
80643;PMS5003;70010;60.224;24.712;2023-11-18T00:09:29;69;58;
80643;PMS5003;70010;60.224;24.712;2023-11-18T00:11:54;68;52;
80643;PMS5003;70010;60.224;24.712;2023-11-18T00:14:19;60;42;
80643;PMS5003;70010;60.224;24.712;2023-11-18T00:16:45;42;41;
80643;PMS5003;70010;60.224;24.712;2023-11-18T00:19:10;62;45;
80643;PMS5003;70010;60.224;24.712;2023-11-18T00:21:36;68;50;
80643;PMS5003;70010;60.224;24.712;2023-11-18T00:24:01;62;48;
80643;PMS5003;70010;60.224;24.712;2023-11-18T00:26:27;80;56;
80643;PMS5003;70010;60.224;24.712;2023-11-18T00:28:52;63;52;
80643;PMS5003;70010;60.224;24.712;2023-11-18T00:31:18;69;50;
80643;PMS5003;70010;60.224;24.712;2023-11-18T00:33:43;49;37;
80643;PMS5003;70010;60.224;24.712;2023-11-18T00:36:09;54;38;
80643;PMS5003;70010;60.224;24.712;2023-11-18T00:38:34;52;41;
80643;PMS5003;70010;60.224;24.712;2023-11-18T00:40:59;50;46;
80643;PMS5003;70010;60.224;24.712;2023-11-18T00:43:25;49;38;
80643;PMS5003;70010;60.224;24.712;2023-11-18T00:45:50;59;46;
80643;PMS5003;70010;60.224;24.712;2023-11-18T00:48:15;52;39;
80643;PMS5003;70010;60.224;24.712;2023-11-18T00:50:41;69;46;
80643;PMS5003;70010;60.224;24.712;2023-11-18T00:53:06;62;43;
80643;PMS5003;70010;60.224;24.712;2023-11-18T00:55:31;54;38;
80643;PMS5003;70010;60.224;24.712;2023-11-18T00:57:57;62;47;
80643;PMS5003;70010;60.224;24.712;2023-11-18T01:00:23;44;38;
80643;PMS5003;70010;60.224;24.712;2023-11-18T01:02:49;64;45;
80643;PMS5003;70010;60.224;24.712;2023-11-18T01:05:14;59;50;
80643;PMS5003;70010;60.224;24.712;2023-11-18T01:07:40;56;44;
80643;PMS5003;70010;60.224;24.712;2023-11-18T01:10:06;54;42;
80643;PMS5003;70010;60.224;24.712;2023-11-18T01:12:31;63;40;
80643;PMS5003;70010;60.224;24.712;2023-11-18T01:14:57;51;37;
80643;PMS5003;70010;60.224;24.712;2023-11-18T01:17:22;70;47;
80643;PMS5003;70010;60.224;24.712;2023-11-18T01:19:47;39;34;
80643;PMS5003;70010;60.224;24.712;2023-11-18T01:22:13;45;38;
80643;PMS5003;70010;60.224;24.712;2023-11-18T01:24:38;39;36;
80643;PMS5003;70010;60.224;24.712;2023-11-18T01:27:04;45;34;
80643;PMS5003;70010;60.224;24.712;2023-11-18T01:29:29;44;37;
80643;PMS5003;70010;60.224;24.712;2023-11-18T01:31:54;47;35;
80643;PMS5003;70010;60.224;24.712;2023-11-18T01:34:19;43;32;
80643;PMS5003;70010;60.224;24.712;2023-11-18T01:36:45;43;34;
80643;PMS5003;70010;60.224;24.712;2023-11-18T01:39:10;48;38;
80643;PMS5003;70010;60.224;24.712;2023-11-18T01:41:35;46;35;
80643;PMS5003;70010;60.224;24.712;2023-11-18T01:44:00;48;40;
80643;PMS5003;70010;60.224;24.712;2023-11-18T01:46:25;58;40;
80643;PMS5003;70010;60.224;24.712;2023-11-18T01:48:51;44;35;
80643;PMS5003;70010;60.224;24.712;2023-11-18T01:51:16;38;32;
80643;PMS5003;70010;60.224;24.712;2023-11-18T01:53:42;47;35;
80643;PMS5003;70010;60.224;24.712;2023-11-18T01:56:07;36;32;
80643;PMS5003;70010;60.224;24.712;2023-11-18T01:58:33;40;34;
80643;PMS5003;70010;60.224;24.712;2023-11-18T02:00:58;41;35;
80643;PMS5003;70010;60.224;24.712;2023-11-18T02:03:23;39;34;
80643;PMS5003;70010;60.224;24.712;2023-11-18T02:05:49;44;34;
80643;PMS5003;70010;60.224;24.712;2023-11-18T02:08:14;46;31;
80643;PMS5003;70010;60.224;24.712;2023-11-18T02:10:48;42;32;
80643;PMS5003;70010;60.224;24.712;2023-11-18T02:13:07;45;32;
80643;PMS5003;70010;60.224;24.712;2023-11-18T02:15:30;41;31;
80643;PMS5003;70010;60.224;24.712;2023-11-18T02:17:55;36;29;
80643;PMS5003;70010;60.224;24.712;2023-11-18T02:20:21;35;34;
80643;PMS5003;70010;60.224;24.712;2023-11-18T02:22:46;43;28;
80643;PMS5003;70010;60.224;24.712;2023-11-18T02:25:13;34;25;
80643;PMS5003;70010;60.224;24.712;2023-11-18T02:27:37;36;24;
80643;PMS5003;70010;60.224;24.712;2023-11-18T02:30:03;36;28;
80643;PMS5003;70010;60.224;24.712;2023-11-18T02:32:29;43;30;
80643;PMS5003;70010;60.224;24.712;2023-11-18T02:34:56;30;28;
80643;PMS5003;70010;60.224;24.712;2023-11-18T02:37:19;54;34;
80643;PMS5003;70010;60.224;24.712;2023-11-18T02:39:45;35;28;
80643;PMS5003;70010;60.224;24.712;2023-11-18T02:42:10;38;32;
80643;PMS5003;70010;60.224;24.712;2023-11-18T02:44:35;34;24;
80643;PMS5003;70010;60.224;24.712;2023-11-18T02:47:01;38;30;
80643;PMS5003;70010;60.224;24.712;2023-11-18T02:49:26;32;28;
80643;PMS5003;70010;60.224;24.712;2023-11-18T02:51:52;36;27;
80643;PMS5003;70010;60.224;24.712;2023-11-18T02:54:17;35;24;
80643;PMS5003;70010;60.224;24.712;2023-11-18T02:56:42;36;28;
80643;PMS5003;70010;60.224;24.712;2023-11-18T02:59:07;27;23;
80643;PMS5003;70010;60.224;24.712;2023-11-18T03:01:33;39;26;
80643;PMS5003;70010;60.224;24.712;2023-11-18T03:03:59;27;20;
80643;PMS5003;70010;60.224;24.712;2023-11-18T03:06:25;27;25;
80643;PMS5003;70010;60.224;24.712;2023-11-18T03:08:50;36;23;
80643;PMS5003;70010;60.224;24.712;2023-11-18T03:11:16;45;26;
80643;PMS5003;70010;60.224;24.712;2023-11-18T03:13:41;26;17;
80643;PMS5003;70010;60.224;24.712;2023-11-18T03:16:06;20;18;
80643;PMS5003;70010;60.224;24.712;2023-11-18T03:18:31;14;12;
80643;PMS5003;70010;60.224;24.712;2023-11-18T03:20:57;15;13;
80643;PMS5003;70010;60.224;24.712;2023-11-18T03:23:22;14;11;
80643;PMS5003;70010;60.224;24.712;2023-11-18T03:25:48;7;6;
80643;PMS5003;70010;60.224;24.712;2023-11-18T03:28:13;10;10;
80643;PMS5003;70010;60.224;24.712;2023-11-18T03:30:38;6;6;
80643;PMS5003;70010;60.224;24.712;2023-11-18T03:33:04;6;6;
80643;PMS5003;70010;60.224;24.712;2023-11-18T03:35:29;5;5;
80643;PMS5003;70010;60.224;24.712;2023-11-18T03:37:54;5;5;
80643;PMS5003;70010;60.224;24.712;2023-11-18T03:40:20;9;6;
80643;PMS5003;70010;60.224;24.712;2023-11-18T03:42:45;9;6;
80643;PMS5003;70010;60.224;24.712;2023-11-18T03:45:10;9;9;
80643;PMS5003;70010;60.224;24.712;2023-11-18T03:47:36;10;9;
80643;PMS5003;70010;60.224;24.712;2023-11-18T03:50:01;9;9;
80643;PMS5003;70010;60.224;24.712;2023-11-18T03:52:27;7;7;
80643;PMS5003;70010;60.224;24.712;2023-11-18T03:54:52;9;6;
80643;PMS5003;70010;60.224;24.712;2023-11-18T03:57:17;9;7;
80643;PMS5003;70010;60.224;24.712;2023-11-18T03:59:42;7;7;
80643;PMS5003;70010;60.224;24.712;2023-11-18T04:02:08;14;11;
80643;PMS5003;70010;60.224;24.712;2023-11-18T04:04:33;14;13;
80643;PMS5003;70010;60.224;24.712;2023-11-18T04:06:58;9;9;
80643;PMS5003;70010;60.224;24.712;2023-11-18T04:09:23;15;12;
80643;PMS5003;70010;60.224;24.712;2023-11-18T04:11:49;14;13;
80643;PMS5003;70010;60.224;24.712;2023-11-18T04:14:14;11;10;
80643;PMS5003;70010;60.224;24.712;2023-11-18T04:16:39;18;14;
80643;PMS5003;70010;60.224;24.712;2023-11-18T04:19:04;16;13;
80643;PMS5003;70010;60.224;24.712;2023-11-18T04:21:30;14;12;
80643;PMS5003;70010;60.224;24.712;2023-11-18T04:23:55;16;12;
80643;PMS5003;70010;60.224;24.712;2023-11-18T04:26:20;21;15;
80643;PMS5003;70010;60.224;24.712;2023-11-18T04:28:46;22;15;
80643;PMS5003;70010;60.224;24.712;2023-11-18T04:31:15;22;13;
80643;PMS5003;70010;60.224;24.712;2023-11-18T04:33:41;21;18;
80643;PMS5003;70010;60.224;24.712;2023-11-18T04:36:06;20;13;
80643;PMS5003;70010;60.224;24.712;2023-11-18T04:38:31;20;15;
80643;PMS5003;70010;60.224;24.712;2023-11-18T04:40:57;15;15;
80643;PMS5003;70010;60.224;24.712;2023-11-18T04:43:22;21;17;
80643;PMS5003;70010;60.224;24.712;2023-11-18T04:45:48;20;19;
80643;PMS5003;70010;60.224;24.712;2023-11-18T04:48:13;20;17;
80643;PMS5003;70010;60.224;24.712;2023-11-18T04:50:39;18;15;
80643;PMS5003;70010;60.224;24.712;2023-11-18T04:53:04;22;14;
80643;PMS5003;70010;60.224;24.712;2023-11-18T04:55:30;18;15;
80643;PMS5003;70010;60.224;24.712;2023-11-18T04:57:55;28;18;
80643;PMS5003;70010;60.224;24.712;2023-11-18T05:00:21;19;17;
80643;PMS5003;70010;60.224;24.712;2023-11-18T05:02:46;18;16;
80643;PMS5003;70010;60.224;24.712;2023-11-18T05:05:11;20;16;
80643;PMS5003;70010;60.224;24.712;2023-11-18T05:07:37;15;15;
80643;PMS5003;70010;60.224;24.712;2023-11-18T05:10:02;15;14;
80643;PMS5003;70010;60.224;24.712;2023-11-18T05:12:27;21;17;
80643;PMS5003;70010;60.224;24.712;2023-11-18T05:14:53;22;18;
80643;PMS5003;70010;60.224;24.712;2023-11-18T05:17:18;17;14;
80643;PMS5003;70010;60.224;24.712;2023-11-18T05:19:44;20;16;
80643;PMS5003;70010;60.224;24.712;2023-11-18T05:22:09;27;14;
80643;PMS5003;70010;60.224;24.712;2023-11-18T05:24:34;16;14;
80643;PMS5003;70010;60.224;24.712;2023-11-18T05:27:00;32;19;
80643;PMS5003;70010;60.224;24.712;2023-11-18T05:29:25;24;19;
80643;PMS5003;70010;60.224;24.712;2023-11-18T05:31:51;21;19;
80643;PMS5003;70010;60.224;24.712;2023-11-18T05:34:16;21;14;
80643;PMS5003;70010;60.224;24.712;2023-11-18T05:36:41;14;13;
80643;PMS5003;70010;60.224;24.712;2023-11-18T05:39:07;20;15;
80643;PMS5003;70010;60.224;24.712;2023-11-18T05:41:32;17;13;
80643;PMS5003;70010;60.224;24.712;2023-11-18T05:43:58;19;14;
80643;PMS5003;70010;60.224;24.712;2023-11-18T05:46:23;17;14;
80643;PMS5003;70010;60.224;24.712;2023-11-18T05:48:48;21;18;
80643;PMS5003;70010;60.224;24.712;2023-11-18T05:51:14;27;18;
80643;PMS5003;70010;60.224;24.712;2023-11-18T05:53:39;17;13;
80643;PMS5003;70010;60.224;24.712;2023-11-18T05:56:05;22;17;
80643;PMS5003;70010;60.224;24.712;2023-11-18T05:58:29;15;14;
80643;PMS5003;70010;60.224;24.712;2023-11-18T06:00:54;17;16;
80643;PMS5003;70010;60.224;24.712;2023-11-18T06:03:20;19;14;
80643;PMS5003;70010;60.224;24.712;2023-11-18T06:05:45;16;16;
80643;PMS5003;70010;60.224;24.712;2023-11-18T06:08:11;19;16;
80643;PMS5003;70010;60.224;24.712;2023-11-18T06:10:36;32;18;
80643;PMS5003;70010;60.224;24.712;2023-11-18T06:13:02;25;17;
80643;PMS5003;70010;60.224;24.712;2023-11-18T06:15:27;20;14;
80643;PMS5003;70010;60.224;24.712;2023-11-18T06:17:53;21;18;
80643;PMS5003;70010;60.224;24.712;2023-11-18T06:20:18;29;18;
80643;PMS5003;70010;60.224;24.712;2023-11-18T06:22:44;19;18;
80643;PMS5003;70010;60.224;24.712;2023-11-18T06:25:09;23;18;
80643;PMS5003;70010;60.224;24.712;2023-11-18T06:27:34;31;20;
80643;PMS5003;70010;60.224;24.712;2023-11-18T06:29:59;27;18;
80643;PMS5003;70010;60.224;24.712;2023-11-18T06:32:25;18;17;
80643;PMS5003;70010;60.224;24.712;2023-11-18T06:34:51;23;12;
80643;PMS5003;70010;60.224;24.712;2023-11-18T06:37:16;15;13;
80643;PMS5003;70010;60.224;24.712;2023-11-18T06:39:41;17;13;
80643;PMS5003;70010;60.224;24.712;2023-11-18T06:42:06;22;15;
80643;PMS5003;70010;60.224;24.712;2023-11-18T06:44:32;33;19;
80643;PMS5003;70010;60.224;24.712;2023-11-18T06:46:58;17;13;
80643;PMS5003;70010;60.224;24.712;2023-11-18T06:49:23;19;13;
80643;PMS5003;70010;60.224;24.712;2023-11-18T06:51:48;16;14;
80643;PMS5003;70010;60.224;24.712;2023-11-18T06:54:14;13;13;
80643;PMS5003;70010;60.224;24.712;2023-11-18T06:56:39;17;13;
80643;PMS5003;70010;60.224;24.712;2023-11-18T06:59:04;16;13;
80643;PMS5003;70010;60.224;24.712;2023-11-18T07:01:30;16;13;
80643;PMS5003;70010;60.224;24.712;2023-11-18T07:03:55;19;13;
80643;PMS5003;70010;60.224;24.712;2023-11-18T07:06:21;17;13;
80643;PMS5003;70010;60.224;24.712;2023-11-18T07:08:46;16;14;
80643;PMS5003;70010;60.224;24.712;2023-11-18T07:11:12;16;13;
80643;PMS5003;70010;60.224;24.712;2023-11-18T07:13:37;19;15;
80643;PMS5003;70010;60.224;24.712;2023-11-18T07:16:03;14;12;
80643;PMS5003;70010;60.224;24.712;2023-11-18T07:18:28;17;14;
80643;PMS5003;70010;60.224;24.712;2023-11-18T07:20:53;20;15;
80643;PMS5003;70010;60.224;24.712;2023-11-18T07:23:19;25;20;
80643;PMS5003;70010;60.224;24.712;2023-11-18T07:25:44;25;14;
80643;PMS5003;70010;60.224;24.712;2023-11-18T07:28:10;18;12;
80643;PMS5003;70010;60.224;24.712;2023-11-18T07:30:35;16;14;
80643;PMS5003;70010;60.224;24.712;2023-11-18T07:33:00;16;12;
80643;PMS5003;70010;60.224;24.712;2023-11-18T07:35:25;18;11;
80643;PMS5003;70010;60.224;24.712;2023-11-18T07:37:51;15;14;
80643;PMS5003;70010;60.224;24.712;2023-11-18T07:40:16;20;13;
80643;PMS5003;70010;60.224;24.712;2023-11-18T07:42:41;17;13;
80643;PMS5003;70010;60.224;24.712;2023-11-18T07:45:06;28;24;
80643;PMS5003;70010;60.224;24.712;2023-11-18T07:47:31;21;14;
80643;PMS5003;70010;60.224;24.712;2023-11-18T07:49:57;25;20;
80643;PMS5003;70010;60.224;24.712;2023-11-18T07:52:22;20;14;
80643;PMS5003;70010;60.224;24.712;2023-11-18T07:54:48;19;14;
80643;PMS5003;70010;60.224;24.712;2023-11-18T07:57:13;20;16;
80643;PMS5003;70010;60.224;24.712;2023-11-18T07:59:39;14;13;
80643;PMS5003;70010;60.224;24.712;2023-11-18T08:02:05;16;16;
80643;PMS5003;70010;60.224;24.712;2023-11-18T08:04:30;14;14;
80643;PMS5003;70010;60.224;24.712;2023-11-18T08:06:55;20;14;
80643;PMS5003;70010;60.224;24.712;2023-11-18T08:09:20;15;14;
80643;PMS5003;70010;60.224;24.712;2023-11-18T08:11:45;21;14;
80643;PMS5003;70010;60.224;24.712;2023-11-18T08:14:11;16;16;
80643;PMS5003;70010;60.224;24.712;2023-11-18T08:16:36;15;13;
80643;PMS5003;70010;60.224;24.712;2023-11-18T08:19:01;22;19;
80643;PMS5003;70010;60.224;24.712;2023-11-18T08:21:26;18;14;
80643;PMS5003;70010;60.224;24.712;2023-11-18T08:23:52;15;12;
80643;PMS5003;70010;60.224;24.712;2023-11-18T08:26:17;14;14;
80643;PMS5003;70010;60.224;24.712;2023-11-18T08:28:42;19;18;
80643;PMS5003;70010;60.224;24.712;2023-11-18T08:31:08;30;19;
80643;PMS5003;70010;60.224;24.712;2023-11-18T08:33:34;15;13;
80643;PMS5003;70010;60.224;24.712;2023-11-18T08:35:59;14;14;
80643;PMS5003;70010;60.224;24.712;2023-11-18T08:38:25;21;16;
80643;PMS5003;70010;60.224;24.712;2023-11-18T08:40:50;14;13;
80643;PMS5003;70010;60.224;24.712;2023-11-18T08:43:15;16;14;
80643;PMS5003;70010;60.224;24.712;2023-11-18T08:45:40;18;14;
80643;PMS5003;70010;60.224;24.712;2023-11-18T08:48:06;17;15;
80643;PMS5003;70010;60.224;24.712;2023-11-18T08:50:31;15;13;
80643;PMS5003;70010;60.224;24.712;2023-11-18T08:52:56;14;14;
80643;PMS5003;70010;60.224;24.712;2023-11-18T08:55:22;17;17;
80643;PMS5003;70010;60.224;24.712;2023-11-18T08:57:48;20;18;
80643;PMS5003;70010;60.224;24.712;2023-11-18T09:00:13;21;19;
80643;PMS5003;70010;60.224;24.712;2023-11-18T09:02:38;16;15;
80643;PMS5003;70010;60.224;24.712;2023-11-18T09:05:04;18;15;
80643;PMS5003;70010;60.224;24.712;2023-11-18T09:07:29;19;16;
80643;PMS5003;70010;60.224;24.712;2023-11-18T09:09:54;17;16;
80643;PMS5003;70010;60.224;24.712;2023-11-18T09:12:19;20;16;
80643;PMS5003;70010;60.224;24.712;2023-11-18T09:14:45;26;20;
80643;PMS5003;70010;60.224;24.712;2023-11-18T09:17:10;15;15;
80643;PMS5003;70010;60.224;24.712;2023-11-18T09:19:36;13;13;
80643;PMS5003;70010;60.224;24.712;2023-11-18T09:22:01;23;16;
80643;PMS5003;70010;60.224;24.712;2023-11-18T09:24:27;23;15;
80643;PMS5003;70010;60.224;24.712;2023-11-18T09:26:52;17;15;
80643;PMS5003;70010;60.224;24.712;2023-11-18T09:29:18;26;15;
80643;PMS5003;70010;60.224;24.712;2023-11-18T09:31:43;13;12;
80643;PMS5003;70010;60.224;24.712;2023-11-18T09:34:08;13;12;
80643;PMS5003;70010;60.224;24.712;2023-11-18T09:36:33;18;12;
80643;PMS5003;70010;60.224;24.712;2023-11-18T09:38:59;15;12;
80643;PMS5003;70010;60.224;24.712;2023-11-18T09:41:24;21;17;
80643;PMS5003;70010;60.224;24.712;2023-11-18T09:43:49;14;14;
80643;PMS5003;70010;60.224;24.712;2023-11-18T09:46:15;14;14;
80643;PMS5003;70010;60.224;24.712;2023-11-18T09:48:41;14;13;
80643;PMS5003;70010;60.224;24.712;2023-11-18T09:51:05;14;13;
80643;PMS5003;70010;60.224;24.712;2023-11-18T09:53:30;13;10;
80643;PMS5003;70010;60.224;24.712;2023-11-18T09:56:03;23;14;
80643;PMS5003;70010;60.224;24.712;2023-11-18T09:58:22;10;10;
80643;PMS5003;70010;60.224;24.712;2023-11-18T10:00:47;25;16;
80643;PMS5003;70010;60.224;24.712;2023-11-18T10:03:12;14;13;
80643;PMS5003;70010;60.224;24.712;2023-11-18T10:05:39;14;12;
80643;PMS5003;70010;60.224;24.712;2023-11-18T10:08:03;19;13;
80643;PMS5003;70010;60.224;24.712;2023-11-18T10:10:28;32;18;
80643;PMS5003;70010;60.224;24.712;2023-11-18T10:12:53;15;13;
80643;PMS5003;70010;60.224;24.712;2023-11-18T10:15:19;18;15;
80643;PMS5003;70010;60.224;24.712;2023-11-18T10:17:44;32;21;
80643;PMS5003;70010;60.224;24.712;2023-11-18T10:20:09;14;14;
80643;PMS5003;70010;60.224;24.712;2023-11-18T10:22:35;20;14;
80643;PMS5003;70010;60.224;24.712;2023-11-18T10:25:00;20;18;
80643;PMS5003;70010;60.224;24.712;2023-11-18T10:27:26;22;16;
80643;PMS5003;70010;60.224;24.712;2023-11-18T10:29:51;19;17;
80643;PMS5003;70010;60.224;24.712;2023-11-18T10:32:16;19;16;
80643;PMS5003;70010;60.224;24.712;2023-11-18T10:34:41;14;12;
80643;PMS5003;70010;60.224;24.712;2023-11-18T10:37:08;29;17;
80643;PMS5003;70010;60.224;24.712;2023-11-18T10:39:32;16;13;
80643;PMS5003;70010;60.224;24.712;2023-11-18T10:41:58;15;13;
80643;PMS5003;70010;60.224;24.712;2023-11-18T10:44:23;20;14;
80643;PMS5003;70010;60.224;24.712;2023-11-18T10:46:50;25;12;
80643;PMS5003;70010;60.224;24.712;2023-11-18T10:49:15;13;12;
80643;PMS5003;70010;60.224;24.712;2023-11-18T10:51:39;19;13;
80643;PMS5003;70010;60.224;24.712;2023-11-18T10:54:05;15;13;
80643;PMS5003;70010;60.224;24.712;2023-11-18T10:56:30;13;10;
80643;PMS5003;70010;60.224;24.712;2023-11-18T10:58:56;24;16;
80643;PMS5003;70010;60.224;24.712;2023-11-18T11:06:15;19;16;
80643;PMS5003;70010;60.224;24.712;2023-11-18T11:08:36;25;15;
80643;PMS5003;70010;60.224;24.712;2023-11-18T11:11:02;19;18;
80643;PMS5003;70010;60.224;24.712;2023-11-18T11:13:27;21;16;
80643;PMS5003;70010;60.224;24.712;2023-11-18T11:15:52;21;18;
80643;PMS5003;70010;60.224;24.712;2023-11-18T11:18:19;19;16;
80643;PMS5003;70010;60.224;24.712;2023-11-18T11:20:46;25;18;
80643;PMS5003;70010;60.224;24.712;2023-11-18T11:23:12;28;15;
80643;PMS5003;70010;60.224;24.712;2023-11-18T11:25:36;16;14;
80643;PMS5003;70010;60.224;24.712;2023-11-18T11:28:00;17;13;
80643;PMS5003;70010;60.224;24.712;2023-11-18T11:30:28;24;14;
80643;PMS5003;70010;60.224;24.712;2023-11-18T11:32:51;19;15;
80643;PMS5003;70010;60.224;24.712;2023-11-18T11:35:18;18;16;
80643;PMS5003;70010;60.224;24.712;2023-11-18T11:37:42;22;16;
80643;PMS5003;70010;60.224;24.712;2023-11-18T11:40:07;23;17;
80643;PMS5003;70010;60.224;24.712;2023-11-18T11:42:33;27;21;
80643;PMS5003;70010;60.224;24.712;2023-11-18T11:44:58;15;14;
80643;PMS5003;70010;60.224;24.712;2023-11-18T11:47:23;18;14;
80643;PMS5003;70010;60.224;24.712;2023-11-18T11:49:50;19;14;
80643;PMS5003;70010;60.224;24.712;2023-11-18T11:52:15;15;15;
80643;PMS5003;70010;60.224;24.712;2023-11-18T11:54:42;27;16;
80643;PMS5003;70010;60.224;24.712;2023-11-18T11:57:06;16;16;
80643;PMS5003;70010;60.224;24.712;2023-11-18T12:01:56;16;13;
80643;PMS5003;70010;60.224;24.712;2023-11-18T12:04:21;16;14;
80643;PMS5003;70010;60.224;24.712;2023-11-18T12:06:47;14;12;
80643;PMS5003;70010;60.224;24.712;2023-11-18T12:09:12;14;14;
80643;PMS5003;70010;60.224;24.712;2023-11-18T12:11:37;17;15;
80643;PMS5003;70010;60.224;24.712;2023-11-18T12:14:03;24;16;
80643;PMS5003;70010;60.224;24.712;2023-11-18T12:28:35;19;15;
80643;PMS5003;70010;60.224;24.712;2023-11-18T12:31:00;28;17;
80643;PMS5003;70010;60.224;24.712;2023-11-18T12:33:26;25;14;
80643;PMS5003;70010;60.224;24.712;2023-11-18T12:40:49;23;14;
80643;PMS5003;70010;60.224;24.712;2023-11-18T12:43:08;26;15;
80643;PMS5003;70010;60.224;24.712;2023-11-18T12:47:59;15;15;
80643;PMS5003;70010;60.224;24.712;2023-11-18T12:50:24;16;15;
80643;PMS5003;70010;60.224;24.712;2023-11-18T12:52:50;19;17;
80643;PMS5003;70010;60.224;24.712;2023-11-18T12:55:16;16;16;
80643;PMS5003;70010;60.224;24.712;2023-11-18T12:57:45;19;15;
80643;PMS5003;70010;60.224;24.712;2023-11-18T13:00:06;11;10;
80643;PMS5003;70010;60.224;24.712;2023-11-18T13:02:31;18;16;
80643;PMS5003;70010;60.224;24.712;2023-11-18T13:04:56;16;15;
80643;PMS5003;70010;60.224;24.712;2023-11-18T13:07:21;14;13;
80643;PMS5003;70010;60.224;24.712;2023-11-18T13:09:47;14;14;
80643;PMS5003;70010;60.224;24.712;2023-11-18T13:12:13;21;13;
80643;PMS5003;70010;60.224;24.712;2023-11-18T13:14:38;15;14;
80643;PMS5003;70010;60.224;24.712;2023-11-18T13:17:03;14;11;
80643;PMS5003;70010;60.224;24.712;2023-11-18T13:19:28;19;16;
80643;PMS5003;70010;60.224;24.712;2023-11-18T13:21:57;14;11;
80643;PMS5003;70010;60.224;24.712;2023-11-18T13:24:20;15;13;
80643;PMS5003;70010;60.224;24.712;2023-11-18T13:26:45;15;13;
80643;PMS5003;70010;60.224;24.712;2023-11-18T13:29:11;17;13;
80643;PMS5003;70010;60.224;24.712;2023-11-18T13:31:36;13;13;
80643;PMS5003;70010;60.224;24.712;2023-11-18T13:34:02;17;13;
80643;PMS5003;70010;60.224;24.712;2023-11-18T13:36:27;17;15;
80643;PMS5003;70010;60.224;24.712;2023-11-18T13:38:52;13;9;
80643;PMS5003;70010;60.224;24.712;2023-11-18T13:43:43;13;13;
80643;PMS5003;70010;60.224;24.712;2023-11-18T13:46:10;13;12;
80643;PMS5003;70010;60.224;24.712;2023-11-18T13:48:33;21;14;
80643;PMS5003;70010;60.224;24.712;2023-11-18T13:50:59;23;13;
80643;PMS5003;70010;60.224;24.712;2023-11-18T13:53:24;17;10;
80643;PMS5003;70010;60.224;24.712;2023-11-18T13:55:50;16;13;
80643;PMS5003;70010;60.224;24.712;2023-11-18T13:58:16;15;12;
80643;PMS5003;70010;60.224;24.712;2023-11-18T14:00:41;12;10;
80643;PMS5003;70010;60.224;24.712;2023-11-18T14:03:07;9;9;
80643;PMS5003;70010;60.224;24.712;2023-11-18T14:05:33;12;10;
80643;PMS5003;70010;60.224;24.712;2023-11-18T14:07:57;17;13;
80643;PMS5003;70010;60.224;24.712;2023-11-18T14:10:22;12;12;
80643;PMS5003;70010;60.224;24.712;2023-11-18T14:15:13;16;13;
80643;PMS5003;70010;60.224;24.712;2023-11-18T14:17:39;15;11;
80643;PMS5003;70010;60.224;24.712;2023-11-18T14:20:04;21;13;
80643;PMS5003;70010;60.224;24.712;2023-11-18T14:22:30;18;13;
80643;PMS5003;70010;60.224;24.712;2023-11-18T14:24:55;21;17;
80643;PMS5003;70010;60.224;24.712;2023-11-18T14:27:21;16;13;
80643;PMS5003;70010;60.224;24.712;2023-11-18T14:29:46;15;13;
80643;PMS5003;70010;60.224;24.712;2023-11-18T14:32:11;14;13;
80643;PMS5003;70010;60.224;24.712;2023-11-18T14:34:37;19;14;
80643;PMS5003;70010;60.224;24.712;2023-11-18T14:37:02;13;11;
80643;PMS5003;70010;60.224;24.712;2023-11-18T14:39:27;16;12;
80643;PMS5003;70010;60.224;24.712;2023-11-18T14:41:53;20;15;
80643;PMS5003;70010;60.224;24.712;2023-11-18T14:44:18;13;13;
80643;PMS5003;70010;60.224;24.712;2023-11-18T14:46:44;16;13;
80643;PMS5003;70010;60.224;24.712;2023-11-18T14:49:09;13;11;
80643;PMS5003;70010;60.224;24.712;2023-11-18T14:51:35;15;14;
80643;PMS5003;70010;60.224;24.712;2023-11-18T14:54:00;17;15;
80643;PMS5003;70010;60.224;24.712;2023-11-18T14:56:25;17;13;
80643;PMS5003;70010;60.224;24.712;2023-11-18T14:58:51;19;19;
80643;PMS5003;70010;60.224;24.712;2023-11-18T15:01:16;16;15;
80643;PMS5003;70010;60.224;24.712;2023-11-18T15:03:42;20;16;
80643;PMS5003;70010;60.224;24.712;2023-11-18T15:06:07;15;13;
80643;PMS5003;70010;60.224;24.712;2023-11-18T15:08:32;19;13;
80643;PMS5003;70010;60.224;24.712;2023-11-18T15:10:58;15;14;
80643;PMS5003;70010;60.224;24.712;2023-11-18T15:13:23;17;16;
80643;PMS5003;70010;60.224;24.712;2023-11-18T15:15:49;24;19;
80643;PMS5003;70010;60.224;24.712;2023-11-18T15:18:14;18;17;
80643;PMS5003;70010;60.224;24.712;2023-11-18T15:20:39;29;17;
80643;PMS5003;70010;60.224;24.712;2023-11-18T15:23:04;15;13;
80643;PMS5003;70010;60.224;24.712;2023-11-18T15:25:30;23;15;
80643;PMS5003;70010;60.224;24.712;2023-11-18T15:27:55;18;17;
80643;PMS5003;70010;60.224;24.712;2023-11-18T15:30:20;17;13;
80643;PMS5003;70010;60.224;24.712;2023-11-18T15:32:46;13;13;
80643;PMS5003;70010;60.224;24.712;2023-11-18T15:35:11;18;15;
80643;PMS5003;70010;60.224;24.712;2023-11-18T15:37:37;19;15;
80643;PMS5003;70010;60.224;24.712;2023-11-18T15:40:03;19;14;
80643;PMS5003;70010;60.224;24.712;2023-11-18T15:42:28;17;15;
80643;PMS5003;70010;60.224;24.712;2023-11-18T15:44:53;18;14;
80643;PMS5003;70010;60.224;24.712;2023-11-18T15:47:19;21;15;
80643;PMS5003;70010;60.224;24.712;2023-11-18T15:49:44;31;14;
80643;PMS5003;70010;60.224;24.712;2023-11-18T15:52:10;25;13;
80643;PMS5003;70010;60.224;24.712;2023-11-18T15:54:36;24;17;
80643;PMS5003;70010;60.224;24.712;2023-11-18T15:57:01;15;13;
80643;PMS5003;70010;60.224;24.712;2023-11-18T15:59:27;16;13;
80643;PMS5003;70010;60.224;24.712;2023-11-18T16:01:52;15;13;
80643;PMS5003;70010;60.224;24.712;2023-11-18T16:04:17;16;13;
80643;PMS5003;70010;60.224;24.712;2023-11-18T16:06:43;19;14;
80643;PMS5003;70010;60.224;24.712;2023-11-18T16:09:09;16;14;
80643;PMS5003;70010;60.224;24.712;2023-11-18T16:11:34;18;14;
80643;PMS5003;70010;60.224;24.712;2023-11-18T16:13:59;16;14;
80643;PMS5003;70010;60.224;24.712;2023-11-18T16:16:25;25;13;
80643;PMS5003;70010;60.224;24.712;2023-11-18T16:18:50;15;14;
80643;PMS5003;70010;60.224;24.712;2023-11-18T16:21:15;22;17;
80643;PMS5003;70010;60.224;24.712;2023-11-18T16:23:40;24;14;